SCO15ST EGPH-EGAA
Flight info
| Callsign | SCO15ST |
|---|---|
| Flight time | 0h 27m |
| Altitude | 22000 |
| Route | GOSAM P600 TRN P600 BLACA DCT BELZU |
| Aircraft | A319/M-SDE3FGHIRWY/LB1 |
Departure
| Time | 2026-04-23 06:53 |
|---|---|
| Airport | Edinburgh Airport (EGPH) |
Arrival
| Time | 2026-04-23 07:20 |
|---|---|
| Airport | Belfast International Airport (EGAA) |
| Time | Latitude | Longitude | Altitude | Speed | Heading |
|---|---|---|---|---|---|
| 2026-04-23 06:41 | 55.94612 | -3.36625 | 117 ft | 0 kts | 89° |
| 2026-04-23 06:46 | 55.94612 | -3.36650 | 114 ft | 3 kts | 87° |
| 2026-04-23 06:46 | 55.94610 | -3.36685 | 114 ft | 3 kts | 78° |
| 2026-04-23 06:46 | 55.94604 | -3.36717 | 113 ft | 3 kts | 50° |
| 2026-04-23 06:46 | 55.94594 | -3.36733 | 112 ft | 1 kts | 1° |
| 2026-04-23 06:47 | 55.94591 | -3.36733 | 113 ft | 0 kts | 359° |
| 2026-04-23 06:48 | 55.94592 | -3.36733 | 113 ft | 1 kts | 359° |
| 2026-04-23 06:48 | 55.94623 | -3.36734 | 115 ft | 8 kts | 359° |
| 2026-04-23 06:49 | 55.94698 | -3.36736 | 116 ft | 12 kts | 359° |
| 2026-04-23 06:49 | 55.94786 | -3.36776 | 115 ft | 14 kts | 348° |
| 2026-04-23 06:49 | 55.94891 | -3.36796 | 112 ft | 16 kts | 333° |
| 2026-04-23 06:49 | 55.94902 | -3.36968 | 115 ft | 18 kts | 238° |
| 2026-04-23 06:50 | 55.94834 | -3.37167 | 116 ft | 20 kts | 239° |
| 2026-04-23 06:50 | 55.94759 | -3.37388 | 114 ft | 22 kts | 239° |
| 2026-04-23 06:50 | 55.94677 | -3.37631 | 115 ft | 24 kts | 239° |
| 2026-04-23 06:50 | 55.94588 | -3.37893 | 116 ft | 26 kts | 239° |
| 2026-04-23 06:51 | 55.94492 | -3.38174 | 115 ft | 27 kts | 239° |
| 2026-04-23 06:51 | 55.94396 | -3.38456 | 113 ft | 21 kts | 239° |
| 2026-04-23 06:51 | 55.94335 | -3.38641 | 115 ft | 17 kts | 239° |
| 2026-04-23 06:51 | 55.94281 | -3.38829 | 116 ft | 14 kts | 270° |
| 2026-04-23 06:52 | 55.94361 | -3.38949 | 113 ft | 17 kts | 328° |
| 2026-04-23 06:52 | 55.94452 | -3.38864 | 114 ft | 19 kts | 59° |
| 2026-04-23 06:52 | 55.94609 | -3.38400 | 113 ft | 90 kts | 59° |
| 2026-04-23 06:52 | 55.95094 | -3.36973 | 256 ft | 160 kts | 59° |
| 2026-04-23 06:53 | 55.95681 | -3.35270 | 1319 ft | 163 kts | 59° |
| 2026-04-23 06:53 | 55.96401 | -3.33625 | 2226 ft | 180 kts | 46° |
| 2026-04-23 06:53 | 55.97434 | -3.32173 | 2852 ft | 198 kts | 34° |
| 2026-04-23 06:53 | 55.98832 | -3.31790 | 3336 ft | 222 kts | 347° |
| 2026-04-23 06:54 | 56.00183 | -3.33389 | 3739 ft | 251 kts | 308° |
| 2026-04-23 06:54 | 56.01005 | -3.36218 | 4447 ft | 270 kts | 284° |
| 2026-04-23 06:54 | 56.01302 | -3.39498 | 5682 ft | 266 kts | 276° |
| 2026-04-23 06:54 | 56.01519 | -3.42796 | 6767 ft | 272 kts | 267° |
| 2026-04-23 06:55 | 56.01174 | -3.46119 | 7698 ft | 275 kts | 252° |
| 2026-04-23 06:55 | 56.00684 | -3.49451 | 8757 ft | 278 kts | 252° |
| 2026-04-23 06:55 | 56.00203 | -3.52824 | 9816 ft | 282 kts | 253° |
| 2026-04-23 06:55 | 55.99726 | -3.56251 | 10799 ft | 289 kts | 254° |
| 2026-04-23 06:56 | 55.99225 | -3.59886 | 11236 ft | 314 kts | 254° |
| 2026-04-23 06:56 | 55.98688 | -3.63813 | 11609 ft | 338 kts | 255° |
| 2026-04-23 06:56 | 55.98114 | -3.67996 | 12124 ft | 353 kts | 255° |
| 2026-04-23 06:56 | 55.97526 | -3.72303 | 12911 ft | 359 kts | 255° |
| 2026-04-23 06:57 | 55.96935 | -3.76661 | 13747 ft | 364 kts | 255° |
| 2026-04-23 06:57 | 55.96333 | -3.81082 | 14575 ft | 368 kts | 255° |
| 2026-04-23 06:57 | 55.95720 | -3.85530 | 15320 ft | 372 kts | 255° |
| 2026-04-23 06:57 | 55.95095 | -3.90035 | 16064 ft | 375 kts | 255° |
| 2026-04-23 06:58 | 55.94464 | -3.94567 | 16812 ft | 379 kts | 255° |
| 2026-04-23 06:58 | 55.93657 | -3.99052 | 17567 ft | 381 kts | 244° |
| 2026-04-23 06:58 | 55.92175 | -4.03142 | 18329 ft | 384 kts | 229° |
| 2026-04-23 06:58 | 55.90221 | -4.06198 | 19023 ft | 388 kts | 215° |
| 2026-04-23 06:59 | 55.87975 | -4.08917 | 19669 ft | 391 kts | 215° |
| 2026-04-23 06:59 | 55.85717 | -4.11667 | 20308 ft | 395 kts | 215° |
| 2026-04-23 06:59 | 55.83448 | -4.14438 | 20913 ft | 398 kts | 215° |
| 2026-04-23 06:59 | 55.81151 | -4.17244 | 21507 ft | 402 kts | 215° |
| 2026-04-23 07:00 | 55.78840 | -4.20068 | 22086 ft | 405 kts | 215° |
| 2026-04-23 07:00 | 55.76520 | -4.22927 | 22470 ft | 407 kts | 216° |
| 2026-04-23 07:00 | 55.74185 | -4.25833 | 22548 ft | 415 kts | 216° |
| 2026-04-23 07:00 | 55.71779 | -4.28842 | 22567 ft | 430 kts | 216° |
| 2026-04-23 07:01 | 55.69312 | -4.31924 | 22562 ft | 436 kts | 216° |
| 2026-04-23 07:01 | 55.66831 | -4.35011 | 22555 ft | 436 kts | 216° |
| 2026-04-23 07:01 | 55.64342 | -4.38090 | 22554 ft | 437 kts | 215° |
| 2026-04-23 07:01 | 55.61847 | -4.41166 | 22553 ft | 437 kts | 215° |
| 2026-04-23 07:02 | 55.59379 | -4.44198 | 22546 ft | 436 kts | 215° |
| 2026-04-23 07:02 | 55.56853 | -4.47295 | 22545 ft | 436 kts | 215° |
| 2026-04-23 07:02 | 55.54392 | -4.50306 | 22546 ft | 435 kts | 215° |
| 2026-04-23 07:02 | 55.51878 | -4.53383 | 22546 ft | 435 kts | 215° |
| 2026-04-23 07:03 | 55.49393 | -4.56425 | 22536 ft | 435 kts | 215° |
| 2026-04-23 07:03 | 55.46909 | -4.59464 | 22549 ft | 434 kts | 215° |
| 2026-04-23 07:03 | 55.44460 | -4.62455 | 22548 ft | 434 kts | 215° |
| 2026-04-23 07:03 | 55.41944 | -4.65526 | 22537 ft | 435 kts | 215° |
| 2026-04-23 07:04 | 55.39455 | -4.68556 | 22519 ft | 435 kts | 215° |
| 2026-04-23 07:04 | 55.36998 | -4.71539 | 22496 ft | 435 kts | 214° |
| 2026-04-23 07:04 | 55.34504 | -4.74557 | 22495 ft | 436 kts | 214° |
| 2026-04-23 07:04 | 55.32002 | -4.77563 | 22492 ft | 436 kts | 213° |
| 2026-04-23 07:05 | 55.29353 | -4.80137 | 22492 ft | 436 kts | 207° |
| 2026-04-23 07:05 | 55.26639 | -4.82520 | 22493 ft | 436 kts | 207° |
| 2026-04-23 07:05 | 55.23973 | -4.84866 | 22505 ft | 419 kts | 207° |
| 2026-04-23 07:05 | 55.21385 | -4.87142 | 21387 ft | 419 kts | 207° |
| 2026-04-23 07:06 | 55.18753 | -4.89455 | 20249 ft | 425 kts | 207° |
| 2026-04-23 07:06 | 55.16114 | -4.91769 | 19387 ft | 423 kts | 207° |
| 2026-04-23 07:06 | 55.13491 | -4.94063 | 18517 ft | 421 kts | 206° |
| 2026-04-23 07:06 | 55.10887 | -4.96337 | 17710 ft | 416 kts | 206° |
| 2026-04-23 07:07 | 55.08317 | -4.98577 | 16977 ft | 410 kts | 206° |
| 2026-04-23 07:07 | 55.05780 | -5.00785 | 16237 ft | 405 kts | 206° |
| 2026-04-23 07:07 | 55.03270 | -5.02969 | 15535 ft | 402 kts | 206° |
| 2026-04-23 07:07 | 55.00779 | -5.05130 | 14911 ft | 397 kts | 206° |
| 2026-04-23 07:08 | 54.98313 | -5.07261 | 14270 ft | 394 kts | 206° |
| 2026-04-23 07:08 | 54.95871 | -5.09368 | 13529 ft | 390 kts | 206° |
| 2026-04-23 07:08 | 54.93457 | -5.11456 | 12932 ft | 383 kts | 206° |
| 2026-04-23 07:08 | 54.91213 | -5.13584 | 12796 ft | 363 kts | 213° |
| 2026-04-23 07:09 | 54.89904 | -5.15373 | 12701 ft | 344 kts | 222° |
| 2026-04-23 07:09 | 54.87991 | -5.19383 | 12528 ft | 311 kts | 237° |
| 2026-04-23 07:09 | 54.87052 | -5.22631 | 12277 ft | 295 kts | 246° |
| 2026-04-23 07:09 | 54.86400 | -5.25964 | 11758 ft | 289 kts | 250° |
| 2026-04-23 07:10 | 54.85768 | -5.29261 | 11154 ft | 287 kts | 250° |
| 2026-04-23 07:10 | 54.85136 | -5.32531 | 10543 ft | 285 kts | 249° |
| 2026-04-23 07:10 | 54.84508 | -5.35777 | 9913 ft | 283 kts | 248° |
| 2026-04-23 07:10 | 54.84084 | -5.37959 | 9461 ft | 281 kts | 249° |
| 2026-04-23 07:11 | 54.83466 | -5.41140 | 8966 ft | 282 kts | 248° |
| 2026-04-23 07:11 | 54.82843 | -5.44345 | 8552 ft | 280 kts | 248° |
| 2026-04-23 07:11 | 54.82221 | -5.47533 | 8125 ft | 279 kts | 248° |
| 2026-04-23 07:12 | 54.80987 | -5.53866 | 7306 ft | 276 kts | 248° |
| 2026-04-23 07:12 | 54.80375 | -5.57003 | 6904 ft | 274 kts | 248° |
| 2026-04-23 07:12 | 54.79764 | -5.60118 | 6459 ft | 272 kts | 248° |
| 2026-04-23 07:12 | 54.79154 | -5.63216 | 6026 ft | 271 kts | 247° |
| 2026-04-23 07:13 | 54.78547 | -5.66297 | 5574 ft | 270 kts | 248° |
| 2026-04-23 07:13 | 54.77951 | -5.69321 | 5389 ft | 259 kts | 248° |
| 2026-04-23 07:13 | 54.77386 | -5.72205 | 5256 ft | 247 kts | 248° |
| 2026-04-23 07:13 | 54.76842 | -5.74982 | 5130 ft | 235 kts | 248° |
| 2026-04-23 07:14 | 54.76328 | -5.77599 | 5011 ft | 224 kts | 247° |
| 2026-04-23 07:14 | 54.75832 | -5.80114 | 4820 ft | 217 kts | 247° |
| 2026-04-23 07:14 | 54.75346 | -5.82568 | 4542 ft | 214 kts | 246° |
| 2026-04-23 07:14 | 54.74860 | -5.84990 | 4279 ft | 213 kts | 247° |
| 2026-04-23 07:15 | 54.74374 | -5.87409 | 3998 ft | 212 kts | 248° |
| 2026-04-23 07:15 | 54.73892 | -5.89813 | 3739 ft | 210 kts | 248° |
| 2026-04-23 07:15 | 54.73448 | -5.92171 | 3595 ft | 201 kts | 249° |
| 2026-04-23 07:15 | 54.72982 | -5.94361 | 3495 ft | 190 kts | 244° |
| 2026-04-23 07:16 | 54.72469 | -5.96412 | 3308 ft | 183 kts | 240° |
| 2026-04-23 07:16 | 54.71944 | -5.98409 | 3045 ft | 181 kts | 242° |
| 2026-04-23 07:16 | 54.71426 | -6.00364 | 2805 ft | 176 kts | 239° |
| 2026-04-23 07:16 | 54.70927 | -6.02243 | 2575 ft | 167 kts | 239° |
| 2026-04-23 07:17 | 54.70471 | -6.03961 | 2327 ft | 148 kts | 239° |
| 2026-04-23 07:17 | 54.70055 | -6.05519 | 2127 ft | 139 kts | 238° |
| 2026-04-23 07:17 | 54.69652 | -6.07024 | 1936 ft | 137 kts | 238° |
| 2026-04-23 07:17 | 54.69252 | -6.08518 | 1746 ft | 137 kts | 239° |
| 2026-04-23 07:18 | 54.68853 | -6.10007 | 1551 ft | 136 kts | 239° |
| 2026-04-23 07:18 | 54.68452 | -6.11508 | 1378 ft | 138 kts | 239° |
| 2026-04-23 07:18 | 54.68046 | -6.13008 | 1171 ft | 137 kts | 240° |
| 2026-04-23 07:18 | 54.67649 | -6.14505 | 965 ft | 138 kts | 242° |
| 2026-04-23 07:19 | 54.67251 | -6.16010 | 757 ft | 136 kts | 243° |
| 2026-04-23 07:19 | 54.66850 | -6.17490 | 576 ft | 136 kts | 241° |
| 2026-04-23 07:19 | 54.66454 | -6.18968 | 390 ft | 135 kts | 241° |
| 2026-04-23 07:19 | 54.66063 | -6.20416 | 278 ft | 125 kts | 242° |
| 2026-04-23 07:20 | 54.65751 | -6.21572 | 272 ft | 83 kts | 245° |
| 2026-04-23 07:20 | 54.65581 | -6.22207 | 272 ft | 33 kts | 245° |
| 2026-04-23 07:20 | 54.65513 | -6.22454 | 274 ft | 22 kts | 245° |
| 2026-04-23 07:20 | 54.65507 | -6.22680 | 272 ft | 21 kts | 323° |
| 2026-04-23 07:21 | 54.65647 | -6.22780 | 272 ft | 23 kts | 342° |
| 2026-04-23 07:21 | 54.65744 | -6.22682 | 272 ft | 20 kts | 86° |
| 2026-04-23 07:21 | 54.65754 | -6.22491 | 272 ft | 17 kts | 83° |
| 2026-04-23 07:21 | 54.65769 | -6.22283 | 272 ft | 18 kts | 84° |
| 2026-04-23 07:22 | 54.65791 | -6.22095 | 272 ft | 16 kts | 67° |
| 2026-04-23 07:22 | 54.65872 | -6.22022 | 272 ft | 10 kts | 338° |
| 2026-04-23 07:22 | 54.65930 | -6.21997 | 272 ft | 9 kts | 63° |
| 2026-04-23 07:22 | 54.65951 | -6.21919 | 272 ft | 0 kts | 65° |